New Hartford, Connecticut
Current Conditions -  °F | °C
As of 11:51 PM on Wednesday 26 Nov 2014 (Local Time) from KBDL Reporting Station
Light Snow Light Snow  
Wind Chill: -3°   Ceiling: 2300
Heat Index:   Visibility: 1.5mi
Dew Point: -1°   Wind: 10mph
Humidity: 85%   Direction: 350°N
Pressure: 29.76"   Gusts: NA
Location:  41.88°N, 72.98°W
Report Text: KBDL 270451Z 35009KT 1 1/2SM -SN BR FEW009 SCT016 OVC023 02/M01 A2976 RMK AO2 SFC VIS 4 SLP080 P0002 T00171006 400670011 $
Loading
Personal Weather Stations






























Interactive Weather Map New forecast layout! Learn more

10-Day Weather Forecast

Advertisements
Track Severe Weather on mobile